createdAt,value
2019-04-21T00:00:09.241Z,101752.11
2019-04-21T00:02:41.157Z,101756.17
2019-04-21T00:05:32.079Z,101756.70
2019-04-21T00:08:01.236Z,101758.54
2019-04-21T00:10:33.378Z,101755.11
2019-04-21T00:12:57.388Z,101753.38
2019-04-21T00:15:24.446Z,101754.33
2019-04-21T00:17:51.747Z,101743.89
2019-04-21T00:20:32.261Z,101748.78
2019-04-21T00:23:10.056Z,101746.17
2019-04-21T00:25:33.899Z,101741.38
2019-04-21T00:28:20.144Z,101739.73
2019-04-21T00:30:44.365Z,101728.03
2019-04-21T00:33:05.204Z,101733.29
2019-04-21T00:35:29.412Z,101734.65
2019-04-21T00:38:17.075Z,101728.55
2019-04-21T00:40:56.693Z,101722.02
2019-04-21T00:43:22.309Z,101719.44
2019-04-21T00:45:44.917Z,101719.44
2019-04-21T00:48:23.309Z,101712.95
2019-04-21T00:51:14.575Z,101709.52
2019-04-21T00:53:51.962Z,101710.44
2019-04-21T00:56:15.303Z,101704.37
2019-04-21T00:58:49.989Z,101697.89
2019-04-21T01:01:14.974Z,101701.91
2019-04-21T01:03:53.352Z,101693.21
2019-04-21T01:06:22.360Z,101698.11
2019-04-21T01:08:48.876Z,101685.05
2019-04-21T01:11:19.208Z,101688.98
2019-04-21T01:13:59.616Z,101690.33
2019-04-21T01:16:29.931Z,101682.95
2019-04-21T01:18:54.547Z,101682.94
2019-04-21T01:21:13.657Z,101677.75
2019-04-21T01:23:35.844Z,101677.79
2019-04-21T01:26:18.282Z,101677.36
2019-04-21T01:28:55.713Z,101675.64
2019-04-21T01:31:25.846Z,101671.73
2019-04-21T01:34:03.284Z,101677.44
2019-04-21T01:36:24.568Z,101668.31
2019-04-21T01:39:06.694Z,101669.22
2019-04-21T01:41:52.596Z,101667.94
2019-04-21T01:44:01.148Z,101669.27
2019-04-21T01:46:33.546Z,101664.48
2019-04-21T01:49:03.377Z,101661.00
2019-04-21T01:51:45.435Z,101661.05
2019-04-21T01:54:14.633Z,101665.88
2019-04-21T01:56:44.503Z,101655.41
2019-04-21T01:59:10.199Z,101661.13
2019-04-21T02:01:54.182Z,101658.98
2019-04-21T02:04:29.265Z,101658.58
2019-04-21T02:06:59.899Z,101656.00
2019-04-21T02:09:27.378Z,101646.84
2019-04-21T02:12:05.837Z,101650.33
2019-04-21T02:14:39.071Z,101640.34
2019-04-21T02:17:05.596Z,101640.78
2019-04-21T02:19:31.302Z,101635.98
2019-04-21T02:21:59.295Z,101640.36
2019-04-21T02:24:45.123Z,101633.39
2019-04-21T02:27:13.218Z,101631.66
2019-04-21T02:29:41.164Z,101634.25
2019-04-21T02:32:26.198Z,101629.01
2019-04-21T02:34:59.953Z,101635.12
2019-04-21T02:40:00.254Z,101637.78
2019-04-21T02:42:32.859Z,101632.11
2019-04-21T02:47:42.500Z,101631.69
2019-04-21T02:52:35.444Z,101627.77
2019-04-21T02:57:35.677Z,101620.78
2019-04-21T03:05:34.501Z,101616.86
2019-04-21T03:15:45.010Z,101599.01
2019-04-21T03:18:06.353Z,101600.77
2019-04-21T03:20:35.349Z,101592.91
2019-04-21T03:23:09.349Z,101588.56
2019-04-21T03:25:41.588Z,101584.20
2019-04-21T03:28:06.458Z,101579.86
2019-04-21T03:31:05.999Z,101578.10
2019-04-21T03:38:18.972Z,101572.87
2019-04-21T03:40:40.835Z,101572.89
2019-04-21T03:43:16.566Z,101565.50
2019-04-21T03:48:17.318Z,101571.16
2019-04-21T03:53:18.561Z,101575.51
2019-04-21T03:55:54.193Z,101569.84
2019-04-21T03:58:39.471Z,101565.05
2019-04-21T04:06:09.912Z,101558.94
2019-04-21T04:08:51.646Z,101560.27
2019-04-21T04:11:23.196Z,101562.00
2019-04-21T04:16:18.357Z,101559.38
2019-04-21T04:21:30.816Z,101553.72
2019-04-21T04:23:58.178Z,101551.55
2019-04-21T04:26:22.646Z,101546.33
2019-04-21T04:28:56.272Z,101540.63
2019-04-21T04:31:30.398Z,101538.92
2019-04-21T04:34:12.642Z,101534.13
2019-04-21T04:39:36.631Z,101536.27
2019-04-21T04:42:04.975Z,101533.66
2019-04-21T04:44:57.055Z,101534.12
2019-04-21T04:47:05.860Z,101528.89
2019-04-21T04:57:29.473Z,101527.58
2019-04-21T05:04:46.139Z,101522.36
2019-04-21T05:09:41.402Z,101522.36
2019-04-21T05:12:22.770Z,101527.56
2019-04-21T05:20:03.617Z,101521.05
2019-04-21T05:22:17.168Z,101523.62
2019-04-21T05:24:33.823Z,101522.73
2019-04-21T05:27:07.492Z,101528.73
2019-04-21T05:29:59.971Z,101520.72
2019-04-21T05:32:26.454Z,101514.38
2019-04-21T05:35:01.564Z,101519.77
2019-04-21T05:37:51.834Z,101518.92
2019-04-21T05:40:15.634Z,101515.50
2019-04-21T05:42:52.540Z,101510.58
2019-04-21T05:45:26.888Z,101512.58
2019-04-21T05:48:02.683Z,101508.53
2019-04-21T05:50:30.579Z,101514.83
2019-04-21T05:52:53.540Z,101513.09
2019-04-21T05:55:36.077Z,101512.27
2019-04-21T05:58:04.204Z,101517.11
2019-04-21T06:01:06.085Z,101513.42
2019-04-21T06:03:09.925Z,101511.20
2019-04-21T06:06:01.578Z,101506.58
2019-04-21T06:08:13.250Z,101506.95
2019-04-21T06:10:50.848Z,101506.50
2019-04-21T06:13:18.699Z,101497.68
2019-04-21T06:15:54.767Z,101499.84
2019-04-21T06:18:23.535Z,101501.95
2019-04-21T06:20:51.156Z,101502.13
2019-04-21T06:23:17.927Z,101503.50
2019-04-21T06:26:05.740Z,101496.86
2019-04-21T06:28:21.038Z,101490.33
2019-04-21T06:30:59.214Z,101486.05
2019-04-21T06:33:27.583Z,101476.94
2019-04-21T06:46:35.005Z,101469.67
2019-04-21T06:49:03.044Z,101472.02
2019-04-21T06:51:49.708Z,101465.06
2019-04-21T06:54:25.268Z,101468.53
2019-04-21T06:56:41.019Z,101468.22
2019-04-21T06:59:21.028Z,101465.70
2019-04-21T07:01:43.619Z,101475.42
2019-04-21T07:04:20.851Z,101466.00
2019-04-21T07:11:44.560Z,101464.98
2019-04-21T07:14:29.356Z,101464.06
2019-04-21T07:16:51.454Z,101464.06
2019-04-21T07:21:54.245Z,101465.61
2019-04-21T07:24:25.125Z,101469.45
2019-04-21T07:26:55.375Z,101460.53
2019-04-21T07:29:25.882Z,101468.26
2019-04-21T07:31:58.954Z,101468.64
2019-04-21T07:34:33.303Z,101465.97
2019-04-21T07:39:27.100Z,101466.95
2019-04-21T07:41:53.973Z,101470.52
2019-04-21T07:44:28.502Z,101466.52
2019-04-21T07:46:54.012Z,101462.20
2019-04-21T07:49:50.026Z,101461.72
2019-04-21T07:52:36.366Z,101458.67
2019-04-21T07:55:12.588Z,101456.70
2019-04-21T07:57:31.618Z,101457.34
2019-04-21T08:00:14.947Z,101456.36
2019-04-21T08:02:38.452Z,101451.51
2019-04-21T08:05:13.305Z,101454.92
2019-04-21T08:07:49.259Z,101453.49
2019-04-21T08:10:14.526Z,101452.64
2019-04-21T08:12:36.299Z,101452.80
2019-04-21T08:15:31.011Z,101444.30
2019-04-21T08:17:42.605Z,101438.29
2019-04-21T08:20:13.848Z,101439.94
2019-04-21T08:22:52.792Z,101440.16
2019-04-21T08:25:16.816Z,101430.73
2019-04-21T08:30:21.483Z,101422.09
2019-04-21T08:37:50.959Z,101406.89
2019-04-21T08:40:31.702Z,101404.83
2019-04-21T08:42:55.073Z,101402.11
2019-04-21T08:47:59.155Z,101393.08
2019-04-21T08:50:30.572Z,101400.38
2019-04-21T08:53:04.149Z,101390.82
2019-04-21T08:55:39.980Z,101386.17
2019-04-21T08:58:29.388Z,101387.16
2019-04-21T09:01:06.692Z,101383.68
2019-04-21T09:03:44.823Z,101384.60
2019-04-21T09:06:27.360Z,101378.89
2019-04-21T09:08:45.756Z,101376.34
2019-04-21T09:11:20.414Z,101369.13
2019-04-21T09:13:47.777Z,101368.70
2019-04-21T09:16:15.430Z,101368.88
2019-04-21T09:18:48.772Z,101369.08
2019-04-21T09:21:25.919Z,101362.39
2019-04-21T09:23:54.509Z,101361.02
2019-04-21T09:26:25.253Z,101361.92
2019-04-21T09:28:50.645Z,101358.41
2019-04-21T09:31:08.978Z,101345.13
2019-04-21T09:33:46.761Z,101350.31
2019-04-21T09:36:15.422Z,101347.00
2019-04-21T09:38:43.879Z,101346.22
2019-04-21T09:41:16.285Z,101344.02
2019-04-21T09:43:48.412Z,101341.61
2019-04-21T09:46:16.046Z,101338.14
2019-04-21T09:48:53.850Z,101331.83
2019-04-21T09:51:17.786Z,101326.78
2019-04-21T09:53:56.476Z,101329.17
2019-04-21T09:56:31.468Z,101330.74
2019-04-21T09:58:57.407Z,101330.74
2019-04-21T10:01:28.708Z,101322.56
2019-04-21T10:03:58.621Z,101322.06
2019-04-21T10:06:26.029Z,101319.44
2019-04-21T10:09:01.613Z,101322.10
2019-04-21T10:11:26.918Z,101310.04
2019-04-21T10:13:56.324Z,101309.16
2019-04-21T10:16:30.380Z,101303.36
2019-04-21T10:18:59.789Z,101299.14
2019-04-21T10:21:29.439Z,101305.52
2019-04-21T10:23:59.862Z,101297.20
2019-04-21T10:26:30.499Z,101287.64
2019-04-21T10:29:08.236Z,101294.44
2019-04-21T10:31:32.370Z,101281.95
2019-04-21T10:34:03.143Z,101283.08
2019-04-21T10:36:33.202Z,101291.95
2019-04-21T10:39:04.084Z,101282.04
2019-04-21T10:41:35.153Z,101274.20
2019-04-21T10:44:05.061Z,101283.07
2019-04-21T10:46:35.001Z,101272.51
2019-04-21T10:49:04.569Z,101271.57
2019-04-21T10:51:35.141Z,101267.30
2019-04-21T10:54:06.151Z,101265.89
2019-04-21T10:56:41.170Z,101267.00
2019-04-21T10:59:08.029Z,101260.88
2019-04-21T11:01:38.915Z,101256.99
2019-04-21T11:04:28.951Z,101252.34
2019-04-21T11:06:57.134Z,101248.84
2019-04-21T11:09:24.303Z,101248.28
2019-04-21T11:11:53.722Z,101236.87
2019-04-21T11:14:23.241Z,101235.41
2019-04-21T11:16:53.423Z,101238.44
2019-04-21T11:19:24.263Z,101236.87
2019-04-21T11:21:54.658Z,101231.61
2019-04-21T11:24:25.015Z,101229.83
2019-04-21T11:26:55.823Z,101227.95
2019-04-21T11:29:26.357Z,101224.06
2019-04-21T11:31:56.959Z,101225.14
2019-04-21T11:34:27.311Z,101216.36
2019-04-21T11:36:56.801Z,101217.60
2019-04-21T11:39:39.208Z,101209.69
2019-04-21T11:41:59.617Z,101214.13
2019-04-21T11:44:29.216Z,101202.58
2019-04-21T11:46:58.562Z,101208.41
2019-04-21T11:49:31.973Z,101205.25
2019-04-21T11:51:59.076Z,101204.68
2019-04-21T11:54:28.823Z,101191.80
2019-04-21T11:56:59.814Z,101199.43
2019-04-21T11:59:29.951Z,101188.82
2019-04-21T12:01:59.442Z,101180.90
2019-04-21T12:04:29.554Z,101181.56
2019-04-21T12:06:59.848Z,101179.80
2019-04-21T12:09:29.459Z,101166.52
2019-04-21T12:11:59.133Z,101165.47
2019-04-21T12:14:30.152Z,101168.02
2019-04-21T12:16:59.616Z,101168.02
2019-04-21T12:19:30.561Z,101167.09
2019-04-21T12:22:09.736Z,101164.23
2019-04-21T12:24:34.651Z,101153.92
2019-04-21T12:27:05.638Z,101159.52
2019-04-21T12:29:35.596Z,101153.47
2019-04-21T12:32:15.981Z,101153.66
2019-04-21T12:34:47.341Z,101146.69
2019-04-21T12:37:17.060Z,101140.09
2019-04-21T12:39:46.507Z,101140.20
2019-04-21T12:42:16.605Z,101140.48
2019-04-21T12:44:47.525Z,101133.61
2019-04-21T12:47:18.025Z,101125.49
2019-04-21T12:49:47.758Z,101125.41
2019-04-21T12:52:17.741Z,101119.02
2019-04-21T12:54:48.022Z,101114.44
2019-04-21T12:57:19.231Z,101115.31
2019-04-21T12:59:48.783Z,101109.59
2019-04-21T13:02:18.138Z,101104.53
2019-04-21T13:04:49.657Z,101092.22
2019-04-21T13:07:19.448Z,101092.88
2019-04-21T13:09:50.207Z,101099.17
2019-04-21T13:12:19.908Z,101083.92
2019-04-21T13:14:49.643Z,101088.78
2019-04-21T13:17:19.482Z,101078.38
2019-04-21T13:22:37.527Z,101077.31
2019-04-21T13:25:07.667Z,101069.50
2019-04-21T13:27:37.057Z,101064.45
2019-04-21T13:30:10.463Z,101059.97
2019-04-21T13:32:40.789Z,101053.02
2019-04-21T13:35:11.188Z,101047.50
2019-04-21T13:37:41.508Z,101054.75
2019-04-21T13:40:34.104Z,101043.02
2019-04-21T13:42:51.632Z,101046.64
2019-04-21T13:45:18.359Z,101043.48
2019-04-21T13:47:50.148Z,101033.30
2019-04-21T13:50:21.399Z,101023.73
2019-04-21T13:52:51.163Z,101018.22
2019-04-21T13:55:21.352Z,101019.55
2019-04-21T13:57:50.827Z,101018.70
2019-04-21T14:00:21.437Z,101015.27
2019-04-21T14:02:52.507Z,101006.66
2019-04-21T14:05:22.418Z,101004.38
2019-04-21T14:07:52.346Z,101001.33
2019-04-21T14:10:21.978Z,100997.91
2019-04-21T14:12:51.430Z,100986.28
2019-04-21T14:15:22.197Z,100980.66
2019-04-21T14:17:52.924Z,100981.61
2019-04-21T14:20:24.858Z,100973.11
2019-04-21T14:22:54.323Z,100973.68
2019-04-21T14:25:23.939Z,100971.30
2019-04-21T14:27:54.502Z,100972.06
2019-04-21T14:30:26.326Z,100973.97
2019-04-21T14:32:56.207Z,100980.45
2019-04-21T14:35:26.898Z,100979.22
2019-04-21T14:37:56.639Z,100973.78
2019-04-21T14:40:29.208Z,100967.98
2019-04-21T14:42:58.239Z,100960.44
2019-04-21T14:45:30.436Z,100957.69
2019-04-21T14:48:01.520Z,100951.28
2019-04-21T14:50:44.346Z,100944.11
2019-04-21T14:53:16.056Z,100942.20
2019-04-21T14:55:46.083Z,100945.27
2019-04-21T14:58:15.484Z,100950.80
2019-04-21T15:00:53.823Z,100945.95
2019-04-21T15:03:23.596Z,100946.23
2019-04-21T15:05:54.047Z,100942.72
2019-04-21T15:08:24.845Z,100935.86
2019-04-21T15:10:54.936Z,100935.39
2019-04-21T15:13:25.838Z,100928.13
2019-04-21T15:15:56.282Z,100926.69
2019-04-21T15:18:26.386Z,100922.80
2019-04-21T15:20:57.246Z,100923.13
2019-04-21T15:23:28.618Z,100924.86
2019-04-21T15:25:58.016Z,100916.26
2019-04-21T15:28:31.633Z,100909.69
2019-04-21T15:31:00.640Z,100907.87
2019-04-21T15:33:30.668Z,100900.53
2019-04-21T15:36:00.805Z,100907.08
2019-04-21T15:38:31.927Z,100906.97
2019-04-21T15:41:06.414Z,100902.70
2019-04-21T15:43:33.483Z,100890.63
2019-04-21T15:46:02.936Z,100889.09
2019-04-21T15:48:33.101Z,100890.73
2019-04-21T15:51:06.759Z,100886.34
2019-04-21T15:53:39.468Z,100884.05
2019-04-21T15:56:17.418Z,100879.12
2019-04-21T15:58:52.556Z,100877.41
2019-04-21T16:01:38.952Z,100877.01
2019-04-21T16:04:10.761Z,100877.18
2019-04-21T16:06:41.287Z,100871.94
2019-04-21T16:09:14.932Z,100877.28
2019-04-21T16:11:42.225Z,100872.02
2019-04-21T16:14:11.624Z,100864.50
2019-04-21T16:16:41.236Z,100863.81
2019-04-21T16:19:12.149Z,100863.05
2019-04-21T16:21:44.420Z,100859.32
2019-04-21T16:24:14.138Z,100854.67
2019-04-21T16:26:44.702Z,100859.94
2019-04-21T16:29:15.275Z,100852.41
2019-04-21T16:31:44.808Z,100843.16
2019-04-21T16:34:14.211Z,100843.70
2019-04-21T16:36:43.627Z,100837.88
2019-04-21T16:39:13.530Z,100840.03
2019-04-21T16:41:42.966Z,100829.27
2019-04-21T16:44:13.533Z,100828.88
2019-04-21T16:46:43.385Z,100818.51
2019-04-21T16:49:13.770Z,100825.84
2019-04-21T16:51:44.319Z,100818.95
2019-04-21T16:54:16.268Z,100816.67
2019-04-21T16:56:47.938Z,100809.38
2019-04-21T16:59:18.998Z,100816.33
2019-04-21T17:01:48.914Z,100811.69
2019-04-21T17:04:18.356Z,100814.17
2019-04-21T17:06:49.192Z,100811.89
2019-04-21T17:09:18.882Z,100811.05
2019-04-21T17:11:52.335Z,100812.87
2019-04-21T17:14:39.186Z,100806.87
2019-04-21T17:17:16.320Z,100805.16
2019-04-21T17:19:29.124Z,100805.27
2019-04-21T17:21:53.297Z,100800.28
2019-04-21T17:24:24.225Z,100797.05
2019-04-21T17:26:53.589Z,100794.55
2019-04-21T17:29:24.869Z,100793.28
2019-04-21T17:31:55.297Z,100791.45
2019-04-21T17:34:28.039Z,100795.63
2019-04-21T17:36:57.134Z,100792.28
2019-04-21T17:39:27.023Z,100785.05
2019-04-21T17:42:12.545Z,100784.13
2019-04-21T17:44:27.727Z,100784.02
2019-04-21T17:47:02.040Z,100779.41
2019-04-21T17:49:28.789Z,100778.90
2019-04-21T17:52:11.254Z,100783.53
2019-04-21T17:54:46.996Z,100782.07
2019-04-21T17:57:33.552Z,100777.95
2019-04-21T18:00:04.098Z,100784.47
2019-04-21T18:02:38.156Z,100779.13
2019-04-21T18:05:13.349Z,100776.59
2019-04-21T18:07:34.907Z,100781.84
2019-04-21T18:10:15.925Z,100775.17
2019-04-21T18:12:36.412Z,100778.25
2019-04-21T18:15:01.421Z,100779.65
2019-04-21T18:17:22.663Z,100789.37
2019-04-21T18:19:54.904Z,100783.10
2019-04-21T18:22:32.132Z,100783.06
2019-04-21T18:25:06.760Z,100782.28
2019-04-21T18:27:34.359Z,100785.44
2019-04-21T18:30:24.292Z,100780.67
2019-04-21T18:32:56.463Z,100781.55
2019-04-21T18:35:29.235Z,100783.73
2019-04-21T18:38:08.140Z,100786.36
2019-04-21T18:40:36.481Z,100786.04
2019-04-21T18:43:43.761Z,100788.66
2019-04-21T18:46:07.061Z,100786.81
2019-04-21T18:48:22.788Z,100788.59
2019-04-21T18:50:57.334Z,100783.06
2019-04-21T18:53:48.098Z,100795.16
2019-04-21T18:56:11.149Z,100784.00
2019-04-21T18:58:38.303Z,100783.55
2019-04-21T19:01:17.844Z,100785.39
2019-04-21T19:03:43.523Z,100787.37
2019-04-21T19:06:16.838Z,100792.73
2019-04-21T19:09:08.679Z,100791.64
2019-04-21T19:11:31.185Z,100795.30
2019-04-21T19:14:20.950Z,100795.94
2019-04-21T19:16:41.588Z,100797.00
2019-04-21T19:19:34.050Z,100795.45
2019-04-21T19:21:42.305Z,100801.36
2019-04-21T19:26:52.353Z,100802.74
2019-04-21T19:29:24.370Z,100804.29
2019-04-21T19:31:49.487Z,100797.97
2019-04-21T19:34:11.358Z,100801.72
2019-04-21T19:36:34.461Z,100797.56
2019-04-21T19:39:11.593Z,100794.73
2019-04-21T19:41:50.745Z,100792.03
2019-04-21T19:44:29.408Z,100795.02
2019-04-21T19:46:58.372Z,100798.03
2019-04-21T19:49:33.516Z,100801.88
2019-04-21T19:51:52.215Z,100805.28
2019-04-21T19:54:24.290Z,100804.80
2019-04-21T19:56:46.963Z,100803.83
2019-04-21T19:59:19.594Z,100798.00
2019-04-21T20:01:49.986Z,100797.95
2019-04-21T20:04:20.035Z,100792.58
2019-04-21T20:07:01.140Z,100788.90
2019-04-21T20:09:37.044Z,100791.50
2019-04-21T20:12:08.227Z,100786.45
2019-04-21T20:14:59.123Z,100786.77
2019-04-21T20:17:08.903Z,100783.97
2019-04-21T20:19:26.596Z,100782.93
2019-04-21T20:21:56.974Z,100781.01
2019-04-21T20:24:29.889Z,100778.70
2019-04-21T20:27:05.265Z,100775.84
2019-04-21T20:29:54.175Z,100773.53
2019-04-21T20:32:27.506Z,100772.39
2019-04-21T20:34:56.347Z,100768.75
2019-04-21T20:37:20.708Z,100767.72
2019-04-21T20:39:42.843Z,100764.16
2019-04-21T20:42:20.981Z,100763.73
2019-04-21T20:45:13.082Z,100769.38
2019-04-21T20:47:20.059Z,100760.81
2019-04-21T20:49:50.489Z,100760.59
2019-04-21T20:52:30.648Z,100756.94
2019-04-21T20:54:55.158Z,100758.44
2019-04-21T20:57:25.906Z,100758.61
2019-04-21T21:00:03.079Z,100752.36
2019-04-21T21:02:39.045Z,100754.38
2019-04-21T21:04:57.178Z,100746.88
2019-04-21T21:10:10.927Z,100745.00
2019-04-21T21:12:42.979Z,100749.73
2019-04-21T21:15:00.148Z,100748.75
2019-04-21T21:17:47.953Z,100743.40
2019-04-21T21:20:15.612Z,100749.00
2019-04-21T21:22:37.692Z,100744.56
2019-04-21T21:25:23.518Z,100743.20
2019-04-21T21:27:41.590Z,100741.87
2019-04-21T21:30:14.579Z,100740.02
2019-04-21T21:32:44.223Z,100735.89
2019-04-21T21:35:13.749Z,100738.35
2019-04-21T21:37:49.541Z,100737.63
2019-04-21T21:40:22.311Z,100733.53
2019-04-21T21:42:40.678Z,100734.16
2019-04-21T21:45:12.557Z,100724.67
2019-04-21T21:47:53.334Z,100724.82
2019-04-21T21:50:20.755Z,100730.12
2019-04-21T21:52:52.451Z,100720.62
2019-04-21T21:55:13.839Z,100722.96
2019-04-21T21:57:49.897Z,100715.61
2019-04-21T22:00:17.550Z,100717.03
2019-04-21T22:02:52.793Z,100714.13
2019-04-21T22:05:24.324Z,100720.42
2019-04-21T22:07:52.302Z,100711.38
2019-04-21T22:10:23.101Z,100710.51
2019-04-21T22:12:59.758Z,100708.78
2019-04-21T22:15:26.783Z,100704.40
2019-04-21T22:18:16.751Z,100697.34
2019-04-21T22:20:44.518Z,100704.44
2019-04-21T22:23:06.406Z,100703.77
2019-04-21T22:25:33.346Z,100705.29
2019-04-21T22:27:59.913Z,100697.57
2019-04-21T22:30:38.435Z,100700.30
2019-04-21T22:33:06.240Z,100702.70
2019-04-21T22:35:40.374Z,100699.91
2019-04-21T22:38:19.625Z,100700.14
2019-04-21T22:40:46.537Z,100709.48
2019-04-21T22:43:18.493Z,100708.39
2019-04-21T22:45:35.757Z,100705.08
2019-04-21T22:48:12.433Z,100709.66
2019-04-21T22:50:40.567Z,100701.48
2019-04-21T22:53:11.919Z,100700.71
2019-04-21T22:55:41.021Z,100703.46
2019-04-21T22:58:11.454Z,100699.20
2019-04-21T23:00:46.064Z,100691.45
2019-04-21T23:03:19.513Z,100693.73
2019-04-21T23:05:48.176Z,100693.86
2019-04-21T23:08:17.146Z,100693.07
2019-04-21T23:10:52.582Z,100690.12
2019-04-21T23:13:23.166Z,100686.74
2019-04-21T23:15:55.379Z,100687.34
2019-04-21T23:18:37.459Z,100690.02
2019-04-21T23:21:08.836Z,100684.92
2019-04-21T23:23:44.148Z,100688.98
2019-04-21T23:26:15.527Z,100688.28
2019-04-21T23:28:49.078Z,100684.87
2019-04-21T23:31:21.875Z,100680.92
2019-04-21T23:33:28.983Z,100680.40
2019-04-21T23:36:07.364Z,100679.50
2019-04-21T23:38:38.782Z,100671.55
2019-04-21T23:41:03.884Z,100671.05
2019-04-21T23:43:33.470Z,100670.12
2019-04-21T23:46:13.155Z,100666.09
2019-04-21T23:48:48.817Z,100669.06
2019-04-21T23:51:15.955Z,100669.47
2019-04-21T23:53:37.429Z,100663.34
2019-04-21T23:56:07.559Z,100662.50
2019-04-21T23:58:39.918Z,100665.65
